Date,TemperatureHighF,TemperatureAvgF,TemperatureLowF,DewpointHighF,DewpointAvgF,DewpointLowF,HumidityHigh,HumidityAvg,HumidityLow,PressureMaxIn,PressureMinIn,WindSpeedMaxMPH,WindSpeedAvgMPH,GustSpeedMaxMPH,PrecipitationSumIn
2013-1-4,71.2,69.0,64.9,40.5,38.6,35.9,34,32,31,29.75,29.70,0,0,0,0.00
2013-1-5,71.1,67.9,62.7,42.6,38.6,34.6,36,34,32,30.12,29.73,0,0,0,0.00
2013-1-6,70.3,67.1,62.2,44.3,39.5,34.4,42,36,32,30.09,29.80,0,0,0,0.00
2013-1-7,71.5,68.5,63.4,41.9,39.8,36.4,37,35,33,30.28,29.82,0,0,0,0.00
2013-1-8,71.2,67.2,62.7,45.3,39.3,35.2,40,35,32,30.25,30.14,0,0,0,0.00
2013-1-9,71.4,66.9,62.7,44.3,39.7,36.4,40,36,33,30.27,29.88,0,0,0,0.00
2013-1-10,71.2,67.5,63.4,43.8,40.9,38.5,39,37,35,30.39,29.92,0,0,0,0.00
2013-1-11,71.4,67.9,62.5,43.0,40.1,35.7,38,36,33,30.38,30.09,0,0,0,0.00
2013-1-12,71.2,67.8,63.2,48.1,43.5,38.5,48,41,36,30.11,29.98,0,0,0,0.00
2013-1-13,71.0,68.0,63.4,47.9,45.2,40.5,46,43,39,30.03,29.88,0,0,0,0.00
2013-1-14,71.3,69.0,67.1,48.7,47.0,45.1,46,45,43,30.13,29.79,0,0,0,0.00
2013-1-15,71.2,67.6,63.6,47.8,44.1,41.8,44,42,40,30.16,30.07,0,0,0,0.00
2013-1-16,71.4,67.4,63.3,46.7,43.1,40.6,43,41,38,30.10,29.64,0,0,0,0.00
2013-1-17,71.2,67.1,63.4,46.0,42.3,40.4,42,40,38,29.94,29.72,0,0,0,0.00
2013-1-18,70.9,66.5,62.2,43.4,38.9,34.1,41,36,30,30.34,29.89,0,0,0,0.00
2013-1-19,71.3,68.2,62.0,45.5,40.2,33.0,41,35,31,30.29,29.80,0,0,0,0.00
2013-1-20,71.2,68.4,63.7,46.0,43.2,39.0,42,40,36,29.80,29.43,0,0,0,0.00
2013-1-21,70.9,68.0,62.8,41.7,38.9,35.9,37,34,30,29.97,29.63,0,0,0,0.00
2013-1-22,71.9,67.6,61.9,40.7,36.8,30.8,35,32,28,29.94,29.60,0,0,0,0.00
2013-1-23,70.1,65.8,61.7,36.0,31.7,27.9,30,27,25,30.01,29.93,0,0,0,0.00
2013-1-24,70.3,65.4,61.7,35.2,29.7,26.2,27,26,24,30.07,29.90,0,0,0,0.00
2013-1-25,70.1,67.1,62.7,34.6,30.4,26.0,28,25,23,30.16,29.91,0,0,0,0.00
2013-1-26,72.5,67.5,61.8,39.3,32.4,27.8,33,27,25,30.08,29.85,0,0,0,0.00
2013-1-27,70.7,67.8,62.6,38.5,32.5,28.3,32,26,24,30.33,30.08,0,0,0,0.00
2013-1-28,71.8,68.4,61.9,36.5,32.6,27.5,29,26,24,30.31,29.86,0,0,0,0.00
2013-1-29,71.0,67.0,62.9,40.2,35.9,31.7,34,31,28,30.07,29.85,0,0,0,0.00
2013-1-30,71.6,68.0,63.4,44.0,40.0,34.5,39,35,31,30.03,29.40,0,0,0,0.00
2013-1-31,71.6,69.3,66.5,45.8,43.7,39.3,41,39,36,29.47,28.91,0,0,0,0.00